Time;durP1;ratioP1;P1;durP2;ratioP2;P2;SDS_P1;SDS_P2;PMS_P1;PMS_P2;Temp;Humidity;BMP_temperature;BMP_pressure;BME280_temperature;BME280_humidity;BME280_pressure;Samples;Min_cycle;Max_cycle;Signal;HPM_P1;HPM_P2
2022/07/29 00:00:25;;;;;;;3.10;1.43;;;;;;;23.09;nan;100288.63;5007104;28;20081;-66
2022/07/29 00:02:51;;;;;;;2.80;1.50;;;;;;;22.95;nan;100281.84;5006411;28;20316;-65
2022/07/29 00:05:16;;;;;;;2.85;1.45;;;;;;;22.84;nan;100277.34;5006092;28;20484;-66
2022/07/29 00:07:42;;;;;;;2.47;1.55;;;;;;;22.75;nan;100279.56;5005252;28;20057;-66
2022/07/29 00:10:07;;;;;;;2.95;1.42;;;;;;;22.65;nan;100271.28;5003326;28;20038;-65
2022/07/29 00:12:32;;;;;;;3.55;1.70;;;;;;;22.52;nan;100271.53;5005420;28;20042;-66
2022/07/29 00:14:58;;;;;;;3.13;1.60;;;;;;;22.36;nan;100265.84;5004890;28;20038;-65
2022/07/29 00:17:24;;;;;;;2.43;1.70;;;;;;;22.26;nan;100266.44;5005597;28;20147;-65
2022/07/29 00:19:49;;;;;;;3.45;1.70;;;;;;;22.16;nan;100273.41;5005185;28;20386;-66
2022/07/29 00:22:14;;;;;;;2.80;1.80;;;;;;;22.03;nan;100271.78;5005117;28;20437;-65
2022/07/29 00:24:40;;;;;;;3.72;2.13;;;;;;;21.96;nan;100279.97;5004395;28;20485;-65
2022/07/29 00:27:05;;;;;;;3.40;2.00;;;;;;;21.90;nan;100280.06;5004149;28;20043;-65
2022/07/29 00:29:31;;;;;;;2.75;1.80;;;;;;;21.81;nan;100275.03;5004335;28;20045;-65
2022/07/29 00:31:56;;;;;;;3.75;2.00;;;;;;;21.77;nan;100271.16;5003860;28;20049;-65
2022/07/29 00:37:05;;;;;;;3.78;1.80;;;;;;;21.68;nan;100269.84;5004153;28;20045;-65
2022/07/29 00:39:30;;;;;;;2.72;1.90;;;;;;;21.60;nan;100262.13;5004972;28;20109;-65
2022/07/29 00:41:56;;;;;;;2.35;1.75;;;;;;;21.57;nan;100257.19;5002133;28;20038;-65
2022/07/29 00:44:21;;;;;;;1.75;1.40;;;;;;;21.54;nan;100263.03;5007663;28;20421;-65
2022/07/29 00:46:46;;;;;;;2.80;1.60;;;;;;;21.47;nan;100257.75;4999043;28;20045;-65
2022/07/29 00:49:12;;;;;;;2.58;1.65;;;;;;;21.44;nan;100258.22;5003696;28;20038;-66
2022/07/29 00:51:38;;;;;;;2.00;1.60;;;;;;;21.42;nan;100257.63;5008868;28;20033;-66
2022/07/29 00:54:05;;;;;;;2.88;1.90;;;;;;;21.38;nan;100257.25;5007548;28;20213;-65
2022/07/29 00:56:31;;;;;;;2.90;1.88;;;;;;;21.45;nan;100248.28;5006109;28;20500;-66
2022/07/29 00:58:57;;;;;;;3.58;1.92;;;;;;;21.48;nan;100253.22;5008240;28;20495;-65
2022/07/29 01:01:22;;;;;;;3.50;1.63;;;;;;;21.50;nan;100249.25;5008690;28;20056;-64
2022/07/29 01:03:47;;;;;;;3.67;2.22;;;;;;;21.56;nan;100244.81;5007198;28;20044;-65
2022/07/29 01:06:14;;;;;;;3.25;2.10;;;;;;;21.71;nan;100245.16;5008994;28;20499;-65
2022/07/29 01:08:40;;;;;;;4.65;2.13;;;;;;;21.78;nan;100245.88;5008046;28;20049;-64
2022/07/29 01:11:05;;;;;;;2.85;2.10;;;;;;;21.89;nan;100249.66;5008649;28;20399;-65
2022/07/29 01:13:31;;;;;;;4.72;2.10;;;;;;;21.88;nan;100239.94;5008085;28;20033;-65
2022/07/29 01:16:03;;;;;;;3.13;1.98;;;;;;;21.82;nan;100244.38;5007645;28;20499;-65
2022/07/29 01:18:33;;;;;;;3.25;2.00;;;;;;;21.75;nan;100240.16;5002240;28;20026;-65
2022/07/29 01:21:10;;;;;;;2.70;1.90;;;;;;;21.71;nan;100234.41;5007257;28;20069;-65
2022/07/29 01:24:04;;;;;;;3.25;2.00;;;;;;;21.74;nan;100233.16;5002755;28;20557;-65
2022/07/29 01:26:40;;;;;;;2.83;1.90;;;;;;;21.77;nan;100232.66;5006897;28;20045;-65
2022/07/29 01:29:29;;;;;;;4.22;1.98;;;;;;;21.72;nan;100233.38;5007006;28;20050;-65
2022/07/29 01:32:09;;;;;;;1.90;1.70;;;;;;;21.64;nan;100244.47;5007852;28;20267;-65
2022/07/29 01:34:48;;;;;;;3.03;1.83;;;;;;;21.49;nan;100236.03;5004954;28;20033;-65
2022/07/29 01:37:24;;;;;;;3.63;1.95;;;;;;;21.34;nan;100231.88;5007901;28;20169;-64
2022/07/29 01:39:52;;;;;;;3.05;1.98;;;;;;;21.23;nan;100240.72;5007434;28;20038;-65
2022/07/29 01:42:29;;;;;;;2.17;1.50;;;;;;;21.14;nan;100234.00;5005323;28;20026;-63
2022/07/29 01:45:08;;;;;;;3.15;1.80;;;;;;;20.98;nan;100230.09;5006736;28;20113;-66
2022/07/29 01:47:40;;;;;;;3.28;1.60;;;;;;;20.91;nan;100226.69;5008823;28;20045;-63
2022/07/29 01:50:09;;;;;;;2.03;1.52;;;;;;;20.83;nan;100217.06;5007506;28;20030;-64
2022/07/29 01:52:42;;;;;;;3.13;1.83;;;;;;;20.76;nan;100214.47;5007176;28;20037;-66
2022/07/29 01:55:13;;;;;;;3.22;2.08;;;;;;;20.70;nan;100212.69;5006300;28;20077;-64
2022/07/29 01:57:40;;;;;;;2.20;1.50;;;;;;;20.61;nan;100207.84;5004721;28;20530;-64
2022/07/29 02:00:06;;;;;;;2.38;1.98;;;;;;;20.52;nan;100202.75;5004663;28;20034;-64
2022/07/29 02:02:33;;;;;;;3.40;1.83;;;;;;;20.42;nan;100209.69;5004849;28;20069;-63
2022/07/29 02:05:01;;;;;;;3.05;2.03;;;;;;;20.37;nan;100211.16;5005514;28;20038;-64
2022/07/29 02:07:31;;;;;;;3.83;2.00;;;;;;;20.44;nan;100207.59;5007045;28;20042;-64
2022/07/29 02:09:58;;;;;;;4.43;2.47;;;;;;;20.55;nan;100201.50;5005525;28;20085;-64
2022/07/29 02:12:25;;;;;;;3.40;1.98;;;;;;;20.55;nan;100205.03;5005074;28;20038;-64
2022/07/29 02:14:53;;;;;;;2.28;1.65;;;;;;;20.50;nan;100199.47;5005431;28;20164;-67
2022/07/29 02:17:32;;;;;;;4.43;2.33;;;;;;;20.44;nan;100207.59;5004913;28;20034;-64
2022/07/29 02:20:02;;;;;;;3.97;2.42;;;;;;;20.43;nan;100204.09;5001296;28;20558;-64
2022/07/29 02:22:30;;;;;;;3.90;2.47;;;;;;;20.41;nan;100200.00;5004762;28;20095;-66
2022/07/29 02:24:55;;;;;;;4.45;2.28;;;;;;;20.38;nan;100198.59;5004344;28;20037;-66
2022/07/29 02:27:24;;;;;;;3.35;2.08;;;;;;;20.36;nan;100201.50;5006349;28;20034;-64
2022/07/29 02:29:52;;;;;;;4.03;1.92;;;;;;;20.33;nan;100206.47;5005628;28;20030;-64
2022/07/29 02:32:20;;;;;;;2.72;1.88;;;;;;;20.29;nan;100206.13;5004881;28;20052;-64
2022/07/29 02:34:47;;;;;;;3.22;2.00;;;;;;;20.29;nan;100210.66;5002022;28;20172;-66
2022/07/29 02:37:13;;;;;;;2.63;2.03;;;;;;;20.33;nan;100214.53;5005149;28;20502;-64
2022/07/29 02:39:41;;;;;;;2.40;2.00;;;;;;;20.36;nan;100214.91;5005697;28;20057;-66
2022/07/29 02:42:09;;;;;;;3.17;2.10;;;;;;;20.48;nan;100217.69;5004159;28;20030;-67
2022/07/29 02:44:36;;;;;;;3.55;1.88;;;;;;;20.55;nan;100222.97;5007535;28;20116;-64
2022/07/29 02:47:16;;;;;;;3.53;2.30;;;;;;;20.62;nan;100214.84;5021650;28;20038;-64
2022/07/29 02:49:59;;;;;;;3.75;2.40;;;;;;;20.70;nan;100218.06;5007189;28;20113;-64
2022/07/29 02:52:57;;;;;;;5.25;1.88;;;;;;;20.81;nan;100218.31;5005385;28;20438;-64
2022/07/29 02:55:45;;;;;;;2.85;1.92;;;;;;;20.84;nan;100215.22;4963871;28;1073108;-63
2022/07/29 02:58:19;;;;;;;4.00;2.13;;;;;;;20.87;nan;100218.25;5002557;28;20030;-63
2022/07/29 03:00:47;;;;;;;3.97;1.98;;;;;;;20.90;nan;100222.34;5005117;28;20044;-64
2022/07/29 03:03:16;;;;;;;3.50;1.90;;;;;;;20.85;nan;100209.59;5005630;28;20057;-64
2022/07/29 03:05:41;;;;;;;4.03;2.00;;;;;;;20.83;nan;100205.50;5006339;28;20034;-63
2022/07/29 03:08:10;;;;;;;3.10;2.08;;;;;;;20.78;nan;100209.69;5005341;28;20049;-65
2022/07/29 03:10:37;;;;;;;3.92;2.33;;;;;;;20.72;nan;100215.97;5006684;28;20038;-64
2022/07/29 03:13:04;;;;;;;4.68;2.17;;;;;;;20.70;nan;100214.56;5005416;28;20050;-63
2022/07/29 03:15:30;;;;;;;4.82;2.13;;;;;;;20.75;nan;100220.06;5006118;28;20030;-63
2022/07/29 03:17:57;;;;;;;4.18;2.33;;;;;;;20.69;nan;100224.50;5004955;28;20462;-64
2022/07/29 03:20:23;;;;;;;4.82;1.92;;;;;;;20.58;nan;100219.88;5004046;28;20049;-65
2022/07/29 03:22:49;;;;;;;3.42;1.90;;;;;;;20.58;nan;100220.69;5004547;28;20038;-63
2022/07/29 03:25:16;;;;;;;4.88;2.13;;;;;;;20.54;nan;100215.94;5006480;28;20411;-63
2022/07/29 03:27:42;;;;;;;2.72;1.70;;;;;;;20.49;nan;100216.63;5006436;28;20580;-63
2022/07/29 03:30:09;;;;;;;4.57;1.60;;;;;;;20.43;nan;100219.41;5003763;28;20129;-63
2022/07/29 03:32:35;;;;;;;2.85;1.80;;;;;;;20.39;nan;100215.53;5006573;28;20029;-63
2022/07/29 03:35:00;;;;;;;2.70;1.70;;;;;;;20.35;nan;100217.81;5005303;28;20052;-63
2022/07/29 03:37:26;;;;;;;3.08;1.90;;;;;;;20.30;nan;100223.84;5005723;28;20776;-63
2022/07/29 03:39:53;;;;;;;3.22;2.05;;;;;;;20.26;nan;100216.47;5004684;28;20424;-63
2022/07/29 03:42:22;;;;;;;4.30;1.83;;;;;;;20.25;nan;100214.84;5005825;28;20534;-63
2022/07/29 03:44:49;;;;;;;2.67;1.90;;;;;;;20.21;nan;100219.00;5006795;28;20657;-63
2022/07/29 03:47:20;;;;;;;3.15;2.08;;;;;;;20.21;nan;100221.69;5004699;28;20337;-63
2022/07/29 03:49:48;;;;;;;2.50;1.90;;;;;;;20.15;nan;100216.16;5004654;28;20041;-63
2022/07/29 03:52:13;;;;;;;3.47;2.08;;;;;;;20.14;nan;100216.38;5004566;28;20030;-66
2022/07/29 03:54:39;;;;;;;3.15;2.08;;;;;;;20.15;nan;100215.34;5005788;28;20041;-63
2022/07/29 03:57:05;;;;;;;3.35;2.00;;;;;;;20.13;nan;100217.44;5001430;28;20406;-66
2022/07/29 03:59:33;;;;;;;3.35;1.98;;;;;;;20.11;nan;100211.47;5005513;28;20470;-64
2022/07/29 04:02:02;;;;;;;3.35;1.70;;;;;;;20.10;nan;100213.34;5004378;28;20133;-66
2022/07/29 04:04:27;;;;;;;3.20;2.00;;;;;;;20.07;nan;100211.09;5004714;28;20034;-64
2022/07/29 04:06:53;;;;;;;2.35;1.80;;;;;;;20.02;nan;100205.59;5006256;28;20034;-65
2022/07/29 04:09:18;;;;;;;2.60;1.85;;;;;;;19.97;nan;100220.69;5006477;28;20398;-63
2022/07/29 04:11:44;;;;;;;2.90;1.70;;;;;;;19.88;nan;100215.63;5005977;28;20040;-66
2022/07/29 04:14:10;;;;;;;2.72;1.88;;;;;;;19.84;nan;100222.47;5003019;28;20045;-64
2022/07/29 04:16:35;;;;;;;2.35;1.50;;;;;;;19.83;nan;100217.31;5006101;28;20084;-63
2022/07/29 04:19:00;;;;;;;3.13;1.90;;;;;;;19.80;nan;100223.94;5004824;28;20038;-64
2022/07/29 04:21:25;;;;;;;2.78;1.90;;;;;;;19.78;nan;100226.00;5006400;28;20049;-64
2022/07/29 04:23:51;;;;;;;2.65;1.88;;;;;;;19.77;nan;100235.13;5005657;28;20128;-63
2022/07/29 04:26:17;;;;;;;3.20;2.00;;;;;;;19.78;nan;100234.06;5008418;28;20450;-63
2022/07/29 04:28:43;;;;;;;2.85;1.80;;;;;;;19.77;nan;100227.06;5010607;28;20129;-64
2022/07/29 04:31:09;;;;;;;4.30;2.30;;;;;;;19.74;nan;100227.50;5008276;28;20120;-63
2022/07/29 04:33:34;;;;;;;2.78;2.10;;;;;;;19.76;nan;100232.63;5008471;28;20034;-64
2022/07/29 04:35:59;;;;;;;3.03;2.10;;;;;;;19.79;nan;100232.22;5007917;28;20180;-64
2022/07/29 04:38:25;;;;;;;4.68;2.28;;;;;;;19.83;nan;100233.41;5008671;28;20032;-64
2022/07/29 04:40:50;;;;;;;3.90;2.15;;;;;;;19.87;nan;100232.75;5011035;28;20034;-63
2022/07/29 04:43:15;;;;;;;2.90;2.03;;;;;;;19.94;nan;100238.88;5013623;28;20053;-63
2022/07/29 04:45:41;;;;;;;3.13;1.90;;;;;;;20.01;nan;100240.69;5011332;28;20316;-64
2022/07/29 04:48:06;;;;;;;2.88;2.10;;;;;;;20.00;nan;100241.72;5008953;28;20041;-63
2022/07/29 04:50:32;;;;;;;4.63;2.10;;;;;;;20.03;nan;100236.72;5010067;28;20482;-63
2022/07/29 04:52:57;;;;;;;4.10;2.35;;;;;;;20.06;nan;100247.03;5010151;28;20046;-64
2022/07/29 04:55:23;;;;;;;3.35;2.13;;;;;;;20.11;nan;100241.81;5007967;28;20066;-64
2022/07/29 04:57:48;;;;;;;3.38;2.20;;;;;;;20.18;nan;100232.88;5008763;28;20042;-65
2022/07/29 05:00:13;;;;;;;2.53;1.90;;;;;;;20.23;nan;100243.75;5007503;28;20046;-64
2022/07/29 05:02:39;;;;;;;3.47;2.05;;;;;;;20.29;nan;100229.47;5008964;28;20289;-64
2022/07/29 05:05:04;;;;;;;3.65;2.10;;;;;;;20.34;nan;100233.13;5008200;28;20042;-64
2022/07/29 05:07:30;;;;;;;3.08;2.00;;;;;;;20.41;nan;100226.84;5006419;28;20030;-64
2022/07/29 05:09:56;;;;;;;3.70;2.22;;;;;;;20.49;nan;100245.34;5005817;28;20036;-64
2022/07/29 05:12:22;;;;;;;4.20;2.47;;;;;;;20.53;nan;100238.50;5006673;28;20107;-64
2022/07/29 05:14:47;;;;;;;4.10;2.60;;;;;;;20.54;nan;100234.75;5008224;28;20518;-64
2022/07/29 05:17:13;;;;;;;3.10;2.00;;;;;;;20.59;nan;100242.97;5006968;28;20260;-64
2022/07/29 05:19:38;;;;;;;2.92;2.10;;;;;;;20.65;nan;100239.41;5007512;28;20490;-63
2022/07/29 05:22:03;;;;;;;3.50;2.30;;;;;;;20.72;nan;100242.03;5008346;28;20042;-64
2022/07/29 05:24:28;;;;;;;3.57;2.20;;;;;;;20.79;nan;100237.38;5007909;28;20060;-65
2022/07/29 05:26:54;;;;;;;3.55;2.28;;;;;;;20.86;nan;100235.44;5006896;28;20364;-64
2022/07/29 05:29:19;;;;;;;3.53;2.10;;;;;;;20.99;nan;100239.81;5007415;28;20403;-64
2022/07/29 05:31:44;;;;;;;3.20;2.20;;;;;;;21.15;nan;100243.72;5008493;28;20402;-64
2022/07/29 05:34:10;;;;;;;3.47;2.20;;;;;;;21.27;nan;100246.47;5006586;28;20042;-64
2022/07/29 05:36:35;;;;;;;4.85;2.10;;;;;;;21.44;nan;100246.66;5008781;28;20847;-64
2022/07/29 05:39:00;;;;;;;6.25;2.17;;;;;;;21.71;nan;100247.84;5009411;28;20500;-64
2022/07/29 05:41:26;;;;;;;2.75;2.33;;;;;;;22.04;nan;100241.91;5003768;28;20589;-65
2022/07/29 05:43:51;;;;;;;3.83;2.13;;;;;;;22.27;nan;100243.81;5012188;28;20030;-64
2022/07/29 05:46:16;;;;;;;2.80;2.20;;;;;;;22.54;nan;100243.28;5009159;28;20033;-64
2022/07/29 05:48:42;;;;;;;3.42;2.00;;;;;;;22.82;nan;100253.31;5007936;28;20038;-65
2022/07/29 05:51:07;;;;;;;4.15;2.00;;;;;;;23.09;nan;100256.28;5007426;28;20045;-65
2022/07/29 05:53:33;;;;;;;3.78;2.10;;;;;;;23.44;nan;100258.00;5007951;28;20579;-64
2022/07/29 05:55:58;;;;;;;2.65;1.80;;;;;;;23.76;nan;100270.97;5006875;28;20053;-65
2022/07/29 05:58:23;;;;;;;3.53;2.10;;;;;;;23.99;nan;100259.19;5006735;28;20038;-66
2022/07/29 06:00:49;;;;;;;3.72;2.03;;;;;;;24.24;nan;100260.59;5004914;28;20099;-66
2022/07/29 06:03:14;;;;;;;4.07;2.38;;;;;;;24.31;nan;100264.78;5007571;28;20048;-65
2022/07/29 06:05:39;;;;;;;3.63;2.10;;;;;;;24.37;nan;100265.66;5008854;28;20076;-65
2022/07/29 06:08:08;;;;;;;3.60;2.10;;;;;;;24.67;nan;100275.25;5009330;28;20506;-65
2022/07/29 06:10:36;;;;;;;2.50;2.00;;;;;;;25.07;nan;100269.50;5007975;28;20092;-66
2022/07/29 06:13:02;;;;;;;3.25;2.00;;;;;;;25.41;nan;100267.47;5009013;28;20092;-66
2022/07/29 06:15:28;;;;;;;3.97;1.80;;;;;;;25.73;nan;100274.75;5009322;28;20045;-65
2022/07/29 06:17:53;;;;;;;3.08;1.80;;;;;;;26.02;nan;100274.47;5009285;28;20045;-66
2022/07/29 06:20:19;;;;;;;3.13;1.87;;;;;;;26.37;nan;100271.16;5009098;28;20114;-65
2022/07/29 06:22:44;;;;;;;3.83;1.92;;;;;;;26.68;nan;100263.22;5009474;28;20273;-66
2022/07/29 06:25:09;;;;;;;2.45;1.40;;;;;;;27.27;nan;100267.47;5007052;28;20053;-66
2022/07/29 06:27:35;;;;;;;2.72;1.40;;;;;;;27.82;nan;100265.88;5006765;28;20534;-67
2022/07/29 06:30:01;;;;;;;3.03;1.70;;;;;;;28.27;nan;100279.66;5006032;28;20045;-65
2022/07/29 06:32:26;;;;;;;1.83;1.40;;;;;;;28.68;nan;100274.16;5000990;28;20271;-64
2022/07/29 06:34:52;;;;;;;2.10;1.40;;;;;;;28.92;nan;100280.56;5004945;28;20490;-65
2022/07/29 06:37:17;;;;;;;2.10;1.50;;;;;;;29.07;nan;100281.59;5004431;28;20038;-65
2022/07/29 06:39:42;;;;;;;3.30;1.90;;;;;;;28.97;nan;100280.53;5005704;28;20068;-65
2022/07/29 06:42:08;;;;;;;3.90;1.60;;;;;;;29.13;nan;100283.22;5002729;28;20041;-64
2022/07/29 06:44:36;;;;;;;3.20;1.80;;;;;;;29.55;nan;100281.81;5008044;28;20363;-65
2022/07/29 06:47:02;;;;;;;2.05;1.60;;;;;;;30.11;nan;100277.81;5012177;28;20284;-65
2022/07/29 06:49:27;;;;;;;3.13;1.70;;;;;;;30.26;nan;100285.88;5008390;28;20301;-65
2022/07/29 06:51:53;;;;;;;2.97;2.00;;;;;;;30.23;nan;100286.41;5006910;28;20165;-65
2022/07/29 06:54:18;;;;;;;3.08;1.92;;;;;;;30.44;nan;100290.56;5005274;28;20280;-65
2022/07/29 06:56:44;;;;;;;4.67;2.17;;;;;;;30.36;nan;100288.47;5007214;28;20034;-66
2022/07/29 06:59:10;;;;;;;4.75;1.85;;;;;;;30.24;nan;100297.03;5005703;28;20789;-64
2022/07/29 07:01:37;;;;;;;3.50;1.80;;;;;;;30.43;nan;100302.56;5005325;28;20034;-66
2022/07/29 07:04:02;;;;;;;4.93;1.98;;;;;;;30.41;nan;100299.31;5003681;28;20414;-65
2022/07/29 07:06:28;;;;;;;4.63;1.80;;;;;;;30.43;nan;100301.78;5005467;28;20052;-65
2022/07/29 07:08:53;;;;;;;5.20;2.20;;;;;;;30.30;nan;100305.22;5004466;28;20120;-67
2022/07/29 07:11:18;;;;;;;3.00;2.08;;;;;;;29.99;nan;100305.47;5002366;28;20291;-66
2022/07/29 07:13:44;;;;;;;5.15;2.10;;;;;;;29.97;nan;100305.75;5003270;28;20074;-65
2022/07/29 07:16:09;;;;;;;3.63;1.83;;;;;;;30.24;nan;100310.66;5004141;28;20067;-66
2022/07/29 07:18:34;;;;;;;2.83;1.90;;;;;;;30.51;nan;100308.50;5006116;28;20351;-66
2022/07/29 07:20:59;;;;;;;5.50;1.67;;;;;;;30.73;nan;100302.53;5005606;28;20501;-66
2022/07/29 07:23:25;;;;;;;3.25;1.85;;;;;;;30.85;nan;100298.28;5004534;28;20293;-66
2022/07/29 07:25:50;;;;;;;2.75;1.75;;;;;;;30.94;nan;100303.94;5003369;28;20037;-66
2022/07/29 07:28:16;;;;;;;2.85;1.60;;;;;;;31.29;nan;100308.06;5003883;28;20041;-66
2022/07/29 07:30:41;;;;;;;3.03;1.80;;;;;;;31.25;nan;100300.75;5003229;28;20067;-66
2022/07/29 07:33:06;;;;;;;2.97;1.90;;;;;;;30.82;nan;100301.59;5005529;28;20038;-66
2022/07/29 07:35:32;;;;;;;3.13;1.90;;;;;;;30.44;nan;100308.88;5001926;28;20318;-66
2022/07/29 07:37:58;;;;;;;2.88;2.08;;;;;;;30.63;nan;100312.47;5004625;28;20360;-65
2022/07/29 07:40:24;;;;;;;2.33;1.77;;;;;;;31.03;nan;100315.78;5004112;28;20049;-65
2022/07/29 07:42:49;;;;;;;2.88;1.77;;;;;;;31.50;nan;100314.06;5007535;28;20037;-65
2022/07/29 07:45:15;;;;;;;2.58;1.63;;;;;;;32.11;nan;100315.00;5008117;28;20437;-66
2022/07/29 07:47:41;;;;;;;2.42;1.60;;;;;;;32.67;nan;100320.53;5004846;28;20073;-66
2022/07/29 07:50:10;;;;;;;3.30;1.95;;;;;;;32.87;nan;100316.53;5004931;28;20038;-66
2022/07/29 07:52:49;;;;;;;7.35;1.83;;;;;;;32.97;nan;100324.56;5005507;28;20602;-66
2022/07/29 07:55:14;;;;;;;3.08;1.90;;;;;;;32.51;nan;100314.53;4993321;28;20052;-65
2022/07/29 07:57:39;;;;;;;3.08;1.80;;;;;;;32.06;nan;100306.88;4999816;28;20951;-66
2022/07/29 08:00:05;;;;;;;3.70;2.03;;;;;;;31.53;nan;100309.91;5005004;28;20065;-65
2022/07/29 08:02:31;;;;;;;3.88;2.05;;;;;;;31.11;nan;100314.34;5008330;28;20293;-65
2022/07/29 08:04:57;;;;;;;3.95;2.35;;;;;;;30.70;nan;100312.09;5009092;28;20173;-65
2022/07/29 08:07:22;;;;;;;3.13;2.22;;;;;;;30.41;nan;100312.97;5000544;28;20041;-66
2022/07/29 08:09:47;;;;;;;2.97;2.00;;;;;;;30.36;nan;100310.28;5006571;28;20050;-66
2022/07/29 08:12:12;;;;;;;3.77;2.30;;;;;;;30.09;nan;100313.56;5007895;28;20860;-65
2022/07/29 08:14:38;;;;;;;3.20;1.97;;;;;;;29.96;nan;100320.50;5004380;28;20293;-65
2022/07/29 08:17:03;;;;;;;3.80;2.10;;;;;;;29.84;nan;100320.03;5009265;28;20346;-66
2022/07/29 08:19:29;;;;;;;2.63;1.80;;;;;;;29.88;nan;100317.56;5007259;28;20037;-66
2022/07/29 08:21:54;;;;;;;3.58;1.90;;;;;;;29.84;nan;100320.03;5008884;28;20030;-65
2022/07/29 08:27:04;;;;;;;4.28;2.22;;;;;;;29.50;nan;100312.63;5007116;28;20041;-65
2022/07/29 08:29:30;;;;;;;3.88;2.10;;;;;;;29.42;nan;100324.16;5007599;28;20033;-65
2022/07/29 08:31:55;;;;;;;2.73;2.00;;;;;;;29.33;nan;100320.38;5007968;28;20038;-65
2022/07/29 08:34:20;;;;;;;2.10;1.65;;;;;;;29.49;nan;100311.03;5005256;28;20807;-65
2022/07/29 08:36:46;;;;;;;2.70;1.80;;;;;;;29.76;nan;100315.22;5007551;28;20096;-65
2022/07/29 08:39:11;;;;;;;2.50;1.77;;;;;;;30.11;nan;100322.25;5007011;28;20474;-65
2022/07/29 08:41:37;;;;;;;3.95;1.90;;;;;;;30.98;nan;100318.59;5003643;28;20491;-65
2022/07/29 08:44:03;;;;;;;2.40;1.60;;;;;;;32.06;nan;100323.28;5005679;28;20100;-65
2022/07/29 08:46:28;;;;;;;2.38;1.85;;;;;;;32.63;nan;100323.03;5005632;28;20037;-65
2022/07/29 08:48:55;;;;;;;2.95;2.15;;;;;;;33.55;nan;100331.22;5006618;28;20038;-65
2022/07/29 08:51:21;;;;;;;2.70;1.77;;;;;;;34.09;nan;100323.91;5006533;28;20038;-65
2022/07/29 08:53:48;;;;;;;3.30;1.98;;;;;;;34.17;nan;100330.53;5007957;28;20038;-65
2022/07/29 08:56:18;;;;;;;2.83;1.95;;;;;;;34.11;nan;100331.78;5007310;28;20581;-65
2022/07/29 08:58:46;;;;;;;2.90;2.33;;;;;;;33.99;nan;100327.69;5005432;28;20038;-65
2022/07/29 09:01:32;;;;;;;3.65;2.10;;;;;;;34.34;nan;100327.06;5007162;28;20037;-66
2022/07/29 09:03:58;;;;;;;5.38;2.20;;;;;;;34.40;nan;100332.09;5007819;28;20594;-66
2022/07/29 09:06:27;;;;;;;3.25;1.90;;;;;;;35.10;nan;100335.09;5006831;28;20352;-66
2022/07/29 09:08:57;;;;;;;3.75;2.17;;;;;;;35.77;nan;100330.25;5007166;28;20526;-66
2022/07/29 09:11:22;;;;;;;4.15;2.38;;;;;;;35.81;nan;100332.03;5007295;28;20046;-65
2022/07/29 09:13:49;;;;;;;4.53;2.15;;;;;;;35.63;nan;100324.94;5007445;28;20060;-65
2022/07/29 09:16:14;;;;;;;3.97;2.20;;;;;;;34.70;nan;100320.59;5005521;28;20041;-65
2022/07/29 09:18:43;;;;;;;4.10;2.25;;;;;;;34.04;nan;100324.81;5005989;28;20038;-66
2022/07/29 09:24:06;;;;;;;3.28;2.00;;;;;;;34.36;nan;100320.13;5009642;28;20402;-65
2022/07/29 09:26:37;;;;;;;3.92;2.35;;;;;;;35.62;nan;100326.88;5008821;28;20066;-67
2022/07/29 09:29:16;;;;;;;5.80;2.03;;;;;;;36.47;nan;100323.44;5008730;28;20045;-65
2022/07/29 09:31:46;;;;;;;4.30;2.03;;;;;;;37.23;nan;100318.94;5006681;28;20041;-65
2022/07/29 09:34:14;;;;;;;2.78;2.28;;;;;;;37.67;nan;100318.59;5006880;28;20045;-66
2022/07/29 09:36:44;;;;;;;3.50;2.40;;;;;;;37.44;nan;100327.19;5006053;28;20506;-65
2022/07/29 09:39:10;;;;;;;3.08;2.00;;;;;;;36.42;nan;100323.59;5006513;28;20395;-65
2022/07/29 09:41:50;;;;;;;3.45;2.38;;;;;;;36.46;nan;100324.56;5004796;28;20358;-65
2022/07/29 09:44:16;;;;;;;3.10;2.20;;;;;;;35.64;nan;100329.31;5003541;28;20041;-65
2022/07/29 09:47:05;;;;;;;4.30;2.55;;;;;;;36.36;nan;100325.72;5011966;28;20306;-66
2022/07/29 09:49:33;;;;;;;4.10;2.05;;;;;;;37.33;nan;100329.56;5005901;28;20064;-65
2022/07/29 09:52:09;;;;;;;3.60;2.72;;;;;;;37.96;nan;100329.47;5004533;28;20042;-64
2022/07/29 09:54:38;;;;;;;5.03;2.53;;;;;;;37.63;nan;100326.72;4996344;28;20118;-65
2022/07/29 09:57:06;;;;;;;2.67;2.20;;;;;;;38.47;nan;100326.47;5007483;28;20030;-65
2022/07/29 09:59:32;;;;;;;3.58;2.30;;;;;;;39.48;nan;100325.63;5003801;28;20033;-66
2022/07/29 10:01:57;;;;;;;3.97;2.30;;;;;;;39.89;nan;100323.59;5005506;28;20042;-66
2022/07/29 10:04:23;;;;;;;3.97;2.33;;;;;;;40.79;nan;100319.50;5005220;28;20041;-65
2022/07/29 10:06:59;;;;;;;6.30;2.60;;;;;;;40.21;nan;100314.50;5005076;28;20038;-65
2022/07/29 10:09:25;;;;;;;4.70;2.10;;;;;;;39.07;nan;100319.28;5004957;28;20472;-65
2022/07/29 10:12:10;;;;;;;4.15;2.60;;;;;;;38.53;nan;100322.34;5009410;28;20072;-65
2022/07/29 10:14:37;;;;;;;3.03;2.30;;;;;;;38.03;nan;100321.47;5005163;28;20025;-65
2022/07/29 10:17:04;;;;;;;4.65;2.47;;;;;;;39.21;nan;100318.09;5004858;28;20044;-65
2022/07/29 10:19:31;;;;;;;4.63;2.20;;;;;;;40.43;nan;100313.06;5007142;28;20052;-65
2022/07/29 10:21:58;;;;;;;3.33;2.05;;;;;;;40.98;nan;100311.19;5007024;28;20129;-65
2022/07/29 10:24:28;;;;;;;3.13;2.20;;;;;;;41.91;nan;100321.41;5012960;28;20117;-66
2022/07/29 10:26:58;;;;;;;4.80;2.27;;;;;;;41.95;nan;100318.66;5017104;28;20042;-66
2022/07/29 10:29:24;;;;;;;3.75;2.30;;;;;;;41.42;nan;100310.94;5009810;28;20125;-65
2022/07/29 10:32:08;;;;;;;5.10;2.80;;;;;;;42.05;nan;100311.72;5008481;28;20400;-66
2022/07/29 10:34:46;;;;;;;4.20;2.20;;;;;;;42.60;nan;100309.47;5006208;28;20034;-65
2022/07/29 10:37:29;;;;;;;3.70;2.45;;;;;;;42.14;nan;100303.94;5006347;28;20064;-65
2022/07/29 10:39:54;;;;;;;5.22;2.53;;;;;;;41.97;nan;100300.47;5006932;28;20034;-65
2022/07/29 10:42:25;;;;;;;5.07;2.60;;;;;;;42.34;nan;100304.66;5007077;28;20483;-66
2022/07/29 10:44:52;;;;;;;3.50;2.60;;;;;;;42.47;nan;100306.06;5006565;28;20124;-66
2022/07/29 10:47:26;;;;;;;3.83;2.00;;;;;;;43.40;nan;100303.75;5009533;28;20088;-65
2022/07/29 10:49:59;;;;;;;3.35;2.22;;;;;;;43.28;nan;100292.88;5008731;28;20091;-65
2022/07/29 10:52:27;;;;;;;3.65;2.40;;;;;;;42.08;nan;100299.88;5006273;28;20095;-65
2022/07/29 10:54:53;;;;;;;2.95;2.05;;;;;;;41.79;nan;100293.81;5006352;28;20101;-66
2022/07/29 10:57:27;;;;;;;4.07;2.22;;;;;;;42.01;nan;100289.44;5007221;28;20061;-65
2022/07/29 11:00:11;;;;;;;2.40;2.00;;;;;;;41.71;nan;100297.63;5002563;28;20050;-65
2022/07/29 11:02:39;;;;;;;3.85;2.30;;;;;;;40.77;nan;100285.78;5002195;28;20042;-66
2022/07/29 11:05:19;;;;;;;4.25;2.50;;;;;;;39.83;nan;100280.75;5004291;28;20045;-65
2022/07/29 11:08:19;;;;;;;6.38;3.00;;;;;;;38.87;nan;100281.53;5005615;28;20421;-65
2022/07/29 11:10:45;;;;;;;4.45;2.53;;;;;;;37.94;nan;100286.78;4994459;28;20041;-65
2022/07/29 11:13:10;;;;;;;4.47;2.60;;;;;;;37.54;nan;100290.13;5003302;28;20041;-65
2022/07/29 11:15:59;;;;;;;5.28;2.70;;;;;;;38.61;nan;100284.69;5004649;28;20033;-65
2022/07/29 11:18:24;;;;;;;4.85;2.58;;;;;;;40.50;nan;100289.13;4994911;28;20101;-65
2022/07/29 11:20:53;;;;;;;3.67;2.28;;;;;;;41.58;nan;100288.66;4999784;28;20041;-65
2022/07/29 11:23:26;;;;;;;3.67;2.30;;;;;;;42.75;nan;100286.22;5005102;28;20049;-65
2022/07/29 11:26:12;;;;;;;3.25;1.90;;;;;;;43.48;nan;100280.41;5003724;28;20495;-66
2022/07/29 11:28:50;;;;;;;3.53;2.42;;;;;;;43.93;nan;100278.44;5003489;28;20038;-66
2022/07/29 11:31:19;;;;;;;4.50;2.38;;;;;;;42.23;nan;100274.72;5002219;28;20038;-66
2022/07/29 11:33:44;;;;;;;5.07;2.67;;;;;;;39.72;nan;100182.75;5006156;28;20117;-65
2022/07/29 11:36:14;;;;;;;5.70;3.15;;;;;;;37.92;nan;100175.91;5001867;28;20172;-65
2022/07/29 11:38:40;;;;;;;4.80;2.78;;;;;;;36.81;nan;100189.38;5004739;28;20121;-65
2022/07/29 11:41:25;;;;;;;4.07;2.70;;;;;;;37.14;nan;100191.41;5003821;28;20506;-65
2022/07/29 11:43:58;;;;;;;4.60;2.42;;;;;;;37.60;nan;100247.41;5004475;28;20050;-65
2022/07/29 11:46:49;;;;;;;8.77;2.75;;;;;;;38.45;nan;100262.47;5003121;28;20038;-65
2022/07/29 11:49:22;;;;;;;4.75;2.72;;;;;;;38.78;nan;100264.25;5005679;28;20463;-65
2022/07/29 11:51:55;;;;;;;3.95;2.72;;;;;;;39.78;nan;100264.34;5005665;28;20491;-66
2022/07/29 11:54:26;;;;;;;4.15;2.60;;;;;;;41.53;nan;100278.66;5005053;28;20139;-66